Terminal Aerodrome Forecast
Issued by NWS

Home | Current Version | Previous Version | Text Only | Print | Product List | Glossary On
Versions: 1 2 3 4 5 6 7 8 9 10 11 12 13 14 15 16 17 18 19 20 21 22 23 24 25 26 27
000
FTAK31 PAFA 011120
TAFAOR
TAF
PAOR 011120Z 0112/0212 31006KT P6SM SCT040 OVC070
     FM011800 31005KT P6SM BKN070 OVC120
     FM020200 31005KT P6SM SCT070 BKN120 OVC200
     FM020600 27005KT P6SM SCT070 BKN120 OVC200
     FM021000 00000KT P6SM SCT070 BKN120=

USA.gov is the U.S. government's official web portal to all federal, state and local government web resources and services.